sensor_id;sensor_type;location;lat;lon;timestamp;P1;durP1;ratioP1;P2;durP2;ratioP2
24357;SDS011;13668;52.154;5.580;2023-11-19T00:00:28;10.82;;;6.40;;
24357;SDS011;13668;52.154;5.580;2023-11-19T00:02:54;14.95;;;6.53;;
24357;SDS011;13668;52.154;5.580;2023-11-19T00:05:20;16.77;;;6.32;;
24357;SDS011;13668;52.154;5.580;2023-11-19T00:07:51;17.10;;;6.03;;
24357;SDS011;13668;52.154;5.580;2023-11-19T00:10:23;9.20;;;5.57;;
24357;SDS011;13668;52.154;5.580;2023-11-19T00:12:49;17.10;;;6.25;;
24357;SDS011;13668;52.154;5.580;2023-11-19T00:15:16;12.85;;;6.82;;
24357;SDS011;13668;52.154;5.580;2023-11-19T00:17:44;13.85;;;5.47;;
24357;SDS011;13668;52.154;5.580;2023-11-19T00:20:14;10.68;;;6.13;;
24357;SDS011;13668;52.154;5.580;2023-11-19T00:22:40;15.40;;;5.95;;
24357;SDS011;13668;52.154;5.580;2023-11-19T00:25:11;10.98;;;5.82;;
24357;SDS011;13668;52.154;5.580;2023-11-19T00:27:37;10.98;;;5.30;;
24357;SDS011;13668;52.154;5.580;2023-11-19T00:30:04;9.82;;;5.53;;
24357;SDS011;13668;52.154;5.580;2023-11-19T00:32:30;11.18;;;4.63;;
24357;SDS011;13668;52.154;5.580;2023-11-19T00:34:56;13.82;;;5.35;;
24357;SDS011;13668;52.154;5.580;2023-11-19T00:37:22;9.82;;;4.60;;
24357;SDS011;13668;52.154;5.580;2023-11-19T00:39:57;11.20;;;4.50;;
24357;SDS011;13668;52.154;5.580;2023-11-19T00:42:30;8.02;;;4.68;;
24357;SDS011;13668;52.154;5.580;2023-11-19T00:44:56;8.30;;;3.78;;
24357;SDS011;13668;52.154;5.580;2023-11-19T00:47:22;9.38;;;3.58;;
24357;SDS011;13668;52.154;5.580;2023-11-19T00:49:48;8.52;;;3.92;;
24357;SDS011;13668;52.154;5.580;2023-11-19T00:52:18;9.65;;;3.97;;
24357;SDS011;13668;52.154;5.580;2023-11-19T00:54:44;9.35;;;4.00;;
24357;SDS011;13668;52.154;5.580;2023-11-19T00:57:10;13.23;;;4.07;;
24357;SDS011;13668;52.154;5.580;2023-11-19T00:59:36;8.40;;;3.92;;
24357;SDS011;13668;52.154;5.580;2023-11-19T01:02:02;16.83;;;4.55;;
24357;SDS011;13668;52.154;5.580;2023-11-19T01:04:32;12.95;;;4.07;;
24357;SDS011;13668;52.154;5.580;2023-11-19T01:06:58;11.32;;;3.17;;
24357;SDS011;13668;52.154;5.580;2023-11-19T01:09:24;9.30;;;3.22;;
24357;SDS011;13668;52.154;5.580;2023-11-19T01:11:51;8.00;;;3.40;;
24357;SDS011;13668;52.154;5.580;2023-11-19T01:14:17;9.98;;;3.15;;
24357;SDS011;13668;52.154;5.580;2023-11-19T01:16:43;11.77;;;3.80;;
24357;SDS011;13668;52.154;5.580;2023-11-19T01:19:12;10.35;;;2.92;;
24357;SDS011;13668;52.154;5.580;2023-11-19T01:21:38;6.78;;;2.92;;
24357;SDS011;13668;52.154;5.580;2023-11-19T01:24:04;17.70;;;3.80;;
24357;SDS011;13668;52.154;5.580;2023-11-19T01:26:34;14.32;;;3.08;;
24357;SDS011;13668;52.154;5.580;2023-11-19T01:29:00;14.23;;;3.08;;
24357;SDS011;13668;52.154;5.580;2023-11-19T01:31:26;13.88;;;3.42;;
24357;SDS011;13668;52.154;5.580;2023-11-19T01:33:52;7.63;;;2.90;;
24357;SDS011;13668;52.154;5.580;2023-11-19T01:36:18;13.43;;;3.33;;
24357;SDS011;13668;52.154;5.580;2023-11-19T01:38:44;10.20;;;3.85;;
24357;SDS011;13668;52.154;5.580;2023-11-19T01:41:10;18.52;;;2.88;;
24357;SDS011;13668;52.154;5.580;2023-11-19T01:43:39;7.10;;;2.70;;
24357;SDS011;13668;52.154;5.580;2023-11-19T01:46:06;9.20;;;2.63;;
24357;SDS011;13668;52.154;5.580;2023-11-19T01:48:36;9.02;;;3.22;;
24357;SDS011;13668;52.154;5.580;2023-11-19T01:51:05;13.30;;;3.03;;
24357;SDS011;13668;52.154;5.580;2023-11-19T01:53:31;17.20;;;3.55;;
24357;SDS011;13668;52.154;5.580;2023-11-19T01:55:58;13.95;;;2.40;;
24357;SDS011;13668;52.154;5.580;2023-11-19T01:58:24;11.32;;;3.92;;
24357;SDS011;13668;52.154;5.580;2023-11-19T02:00:50;12.25;;;3.65;;
24357;SDS011;13668;52.154;5.580;2023-11-19T02:03:16;15.85;;;2.92;;
24357;SDS011;13668;52.154;5.580;2023-11-19T02:05:44;11.80;;;2.45;;
24357;SDS011;13668;52.154;5.580;2023-11-19T02:08:11;18.85;;;4.20;;
24357;SDS011;13668;52.154;5.580;2023-11-19T02:10:38;11.18;;;2.75;;
24357;SDS011;13668;52.154;5.580;2023-11-19T02:13:04;10.85;;;3.15;;
24357;SDS011;13668;52.154;5.580;2023-11-19T02:15:31;9.70;;;2.95;;
24357;SDS011;13668;52.154;5.580;2023-11-19T02:17:57;14.32;;;2.90;;
24357;SDS011;13668;52.154;5.580;2023-11-19T02:20:23;14.98;;;3.50;;
24357;SDS011;13668;52.154;5.580;2023-11-19T02:22:51;9.60;;;3.00;;
24357;SDS011;13668;52.154;5.580;2023-11-19T02:25:19;7.13;;;2.42;;
24357;SDS011;13668;52.154;5.580;2023-11-19T02:27:51;27.15;;;4.03;;
24357;SDS011;13668;52.154;5.580;2023-11-19T02:30:21;12.45;;;3.00;;
24357;SDS011;13668;52.154;5.580;2023-11-19T02:32:51;16.75;;;3.17;;
24357;SDS011;13668;52.154;5.580;2023-11-19T02:35:18;18.92;;;3.10;;
24357;SDS011;13668;52.154;5.580;2023-11-19T02:37:44;23.08;;;3.28;;
24357;SDS011;13668;52.154;5.580;2023-11-19T02:40:10;15.60;;;3.58;;
24357;SDS011;13668;52.154;5.580;2023-11-19T02:42:36;8.13;;;2.13;;
24357;SDS011;13668;52.154;5.580;2023-11-19T02:45:02;13.70;;;3.45;;
24357;SDS011;13668;52.154;5.580;2023-11-19T02:47:31;17.23;;;2.80;;
24357;SDS011;13668;52.154;5.580;2023-11-19T02:49:57;18.73;;;4.20;;
24357;SDS011;13668;52.154;5.580;2023-11-19T02:52:22;17.35;;;3.53;;
24357;SDS011;13668;52.154;5.580;2023-11-19T02:54:49;14.38;;;2.50;;
24357;SDS011;13668;52.154;5.580;2023-11-19T02:57:15;10.35;;;2.83;;
24357;SDS011;13668;52.154;5.580;2023-11-19T02:59:44;11.73;;;3.28;;
24357;SDS011;13668;52.154;5.580;2023-11-19T03:02:13;15.30;;;2.47;;
24357;SDS011;13668;52.154;5.580;2023-11-19T03:04:41;15.98;;;3.65;;
24357;SDS011;13668;52.154;5.580;2023-11-19T03:07:10;22.00;;;3.78;;
24357;SDS011;13668;52.154;5.580;2023-11-19T03:09:37;25.98;;;3.60;;
24357;SDS011;13668;52.154;5.580;2023-11-19T03:12:05;12.68;;;2.95;;
24357;SDS011;13668;52.154;5.580;2023-11-19T03:14:34;22.63;;;2.85;;
24357;SDS011;13668;52.154;5.580;2023-11-19T03:17:00;14.45;;;3.08;;
24357;SDS011;13668;52.154;5.580;2023-11-19T03:19:26;9.57;;;2.92;;
24357;SDS011;13668;52.154;5.580;2023-11-19T03:21:52;19.23;;;3.63;;
24357;SDS011;13668;52.154;5.580;2023-11-19T03:24:21;12.73;;;3.58;;
24357;SDS011;13668;52.154;5.580;2023-11-19T03:26:48;18.98;;;3.65;;
24357;SDS011;13668;52.154;5.580;2023-11-19T03:29:17;20.50;;;3.17;;
24357;SDS011;13668;52.154;5.580;2023-11-19T03:31:43;16.23;;;3.05;;
24357;SDS011;13668;52.154;5.580;2023-11-19T03:34:12;16.35;;;3.03;;
24357;SDS011;13668;52.154;5.580;2023-11-19T03:36:38;16.23;;;2.50;;
24357;SDS011;13668;52.154;5.580;2023-11-19T03:39:04;16.17;;;3.33;;
24357;SDS011;13668;52.154;5.580;2023-11-19T03:41:30;20.33;;;4.25;;
24357;SDS011;13668;52.154;5.580;2023-11-19T03:43:56;13.75;;;3.15;;
24357;SDS011;13668;52.154;5.580;2023-11-19T03:46:22;16.63;;;3.60;;
24357;SDS011;13668;52.154;5.580;2023-11-19T03:48:49;14.63;;;2.90;;
24357;SDS011;13668;52.154;5.580;2023-11-19T03:51:15;23.80;;;4.30;;
24357;SDS011;13668;52.154;5.580;2023-11-19T03:53:42;25.02;;;3.50;;
24357;SDS011;13668;52.154;5.580;2023-11-19T03:56:09;20.75;;;4.15;;
24357;SDS011;13668;52.154;5.580;2023-11-19T03:58:38;20.33;;;3.85;;
24357;SDS011;13668;52.154;5.580;2023-11-19T04:01:04;12.63;;;3.50;;
24357;SDS011;13668;52.154;5.580;2023-11-19T04:03:30;16.58;;;2.95;;
24357;SDS011;13668;52.154;5.580;2023-11-19T04:05:56;10.35;;;3.58;;
24357;SDS011;13668;52.154;5.580;2023-11-19T04:08:22;18.13;;;3.30;;
24357;SDS011;13668;52.154;5.580;2023-11-19T04:10:48;11.10;;;2.65;;
24357;SDS011;13668;52.154;5.580;2023-11-19T04:13:14;22.38;;;4.18;;
24357;SDS011;13668;52.154;5.580;2023-11-19T04:15:44;19.40;;;3.17;;
24357;SDS011;13668;52.154;5.580;2023-11-19T04:18:10;18.80;;;3.20;;
24357;SDS011;13668;52.154;5.580;2023-11-19T04:20:36;16.63;;;3.33;;
24357;SDS011;13668;52.154;5.580;2023-11-19T04:23:02;21.63;;;3.33;;
24357;SDS011;13668;52.154;5.580;2023-11-19T04:25:31;22.08;;;4.05;;
24357;SDS011;13668;52.154;5.580;2023-11-19T04:27:57;24.88;;;4.30;;
24357;SDS011;13668;52.154;5.580;2023-11-19T04:30:23;18.38;;;3.30;;
24357;SDS011;13668;52.154;5.580;2023-11-19T04:32:49;17.42;;;3.83;;
24357;SDS011;13668;52.154;5.580;2023-11-19T04:35:15;27.65;;;4.00;;
24357;SDS011;13668;52.154;5.580;2023-11-19T04:37:44;21.42;;;3.33;;
24357;SDS011;13668;52.154;5.580;2023-11-19T04:40:10;23.55;;;4.53;;
24357;SDS011;13668;52.154;5.580;2023-11-19T04:42:39;23.02;;;4.07;;
24357;SDS011;13668;52.154;5.580;2023-11-19T04:45:05;19.08;;;3.50;;
24357;SDS011;13668;52.154;5.580;2023-11-19T04:47:32;26.13;;;3.95;;
24357;SDS011;13668;52.154;5.580;2023-11-19T04:49:59;16.65;;;3.53;;
24357;SDS011;13668;52.154;5.580;2023-11-19T04:52:25;16.83;;;3.33;;
24357;SDS011;13668;52.154;5.580;2023-11-19T04:54:54;24.00;;;3.67;;
24357;SDS011;13668;52.154;5.580;2023-11-19T04:57:20;14.77;;;4.25;;
24357;SDS011;13668;52.154;5.580;2023-11-19T04:59:46;19.92;;;3.72;;
24357;SDS011;13668;52.154;5.580;2023-11-19T05:02:12;19.10;;;4.45;;
24357;SDS011;13668;52.154;5.580;2023-11-19T05:04:42;16.75;;;3.95;;
24357;SDS011;13668;52.154;5.580;2023-11-19T05:07:11;21.38;;;4.60;;
24357;SDS011;13668;52.154;5.580;2023-11-19T05:09:40;22.75;;;4.45;;
24357;SDS011;13668;52.154;5.580;2023-11-19T05:12:08;14.25;;;3.05;;
24357;SDS011;13668;52.154;5.580;2023-11-19T05:14:37;24.58;;;4.47;;
24357;SDS011;13668;52.154;5.580;2023-11-19T05:17:03;22.38;;;3.47;;
24357;SDS011;13668;52.154;5.580;2023-11-19T05:19:29;27.98;;;3.10;;
24357;SDS011;13668;52.154;5.580;2023-11-19T05:21:55;18.15;;;3.63;;
24357;SDS011;13668;52.154;5.580;2023-11-19T05:24:20;16.65;;;3.45;;
24357;SDS011;13668;52.154;5.580;2023-11-19T05:26:46;21.48;;;3.22;;
24357;SDS011;13668;52.154;5.580;2023-11-19T05:29:13;22.73;;;4.53;;
24357;SDS011;13668;52.154;5.580;2023-11-19T05:31:39;11.38;;;3.15;;
24357;SDS011;13668;52.154;5.580;2023-11-19T05:34:05;13.02;;;3.20;;
24357;SDS011;13668;52.154;5.580;2023-11-19T05:36:32;28.65;;;5.05;;
24357;SDS011;13668;52.154;5.580;2023-11-19T05:38:58;21.63;;;4.80;;
24357;SDS011;13668;52.154;5.580;2023-11-19T05:41:24;24.25;;;3.88;;
24357;SDS011;13668;52.154;5.580;2023-11-19T05:43:50;20.15;;;3.85;;
24357;SDS011;13668;52.154;5.580;2023-11-19T05:46:16;18.35;;;3.83;;
24357;SDS011;13668;52.154;5.580;2023-11-19T05:48:42;24.17;;;3.10;;
24357;SDS011;13668;52.154;5.580;2023-11-19T05:51:10;18.98;;;3.17;;
24357;SDS011;13668;52.154;5.580;2023-11-19T05:53:36;15.13;;;3.67;;
24357;SDS011;13668;52.154;5.580;2023-11-19T05:56:02;18.33;;;3.97;;
24357;SDS011;13668;52.154;5.580;2023-11-19T05:58:32;16.70;;;3.28;;
24357;SDS011;13668;52.154;5.580;2023-11-19T06:00:58;19.00;;;3.58;;
24357;SDS011;13668;52.154;5.580;2023-11-19T06:03:25;23.45;;;4.57;;
24357;SDS011;13668;52.154;5.580;2023-11-19T06:05:52;18.80;;;3.47;;
24357;SDS011;13668;52.154;5.580;2023-11-19T06:08:19;13.85;;;2.72;;
24357;SDS011;13668;52.154;5.580;2023-11-19T06:10:47;20.83;;;3.90;;
24357;SDS011;13668;52.154;5.580;2023-11-19T06:13:15;19.65;;;2.95;;
24357;SDS011;13668;52.154;5.580;2023-11-19T06:15:41;18.13;;;3.15;;
24357;SDS011;13668;52.154;5.580;2023-11-19T06:18:08;14.85;;;2.65;;
24357;SDS011;13668;52.154;5.580;2023-11-19T06:20:34;22.92;;;3.53;;
24357;SDS011;13668;52.154;5.580;2023-11-19T06:23:03;15.07;;;4.13;;
24357;SDS011;13668;52.154;5.580;2023-11-19T06:25:29;17.80;;;3.15;;
24357;SDS011;13668;52.154;5.580;2023-11-19T06:27:55;19.23;;;2.80;;
24357;SDS011;13668;52.154;5.580;2023-11-19T06:30:22;25.58;;;3.97;;
24357;SDS011;13668;52.154;5.580;2023-11-19T06:32:48;14.30;;;3.58;;
24357;SDS011;13668;52.154;5.580;2023-11-19T06:35:14;20.48;;;4.00;;
24357;SDS011;13668;52.154;5.580;2023-11-19T06:37:40;10.73;;;3.88;;
24357;SDS011;13668;52.154;5.580;2023-11-19T06:40:06;19.02;;;3.00;;
24357;SDS011;13668;52.154;5.580;2023-11-19T06:42:37;18.88;;;4.55;;
24357;SDS011;13668;52.154;5.580;2023-11-19T06:45:03;15.13;;;3.08;;
24357;SDS011;13668;52.154;5.580;2023-11-19T06:47:31;17.88;;;2.95;;
24357;SDS011;13668;52.154;5.580;2023-11-19T06:49:57;19.83;;;3.92;;
24357;SDS011;13668;52.154;5.580;2023-11-19T06:52:23;25.35;;;3.97;;
24357;SDS011;13668;52.154;5.580;2023-11-19T06:54:50;26.80;;;4.10;;
24357;SDS011;13668;52.154;5.580;2023-11-19T06:57:16;31.00;;;4.45;;
24357;SDS011;13668;52.154;5.580;2023-11-19T06:59:42;23.02;;;3.33;;
24357;SDS011;13668;52.154;5.580;2023-11-19T07:02:08;29.05;;;3.28;;
24357;SDS011;13668;52.154;5.580;2023-11-19T07:04:34;22.30;;;3.38;;
24357;SDS011;13668;52.154;5.580;2023-11-19T07:07:00;15.50;;;3.67;;
24357;SDS011;13668;52.154;5.580;2023-11-19T07:09:26;14.13;;;2.80;;
24357;SDS011;13668;52.154;5.580;2023-11-19T07:11:52;11.07;;;3.28;;
24357;SDS011;13668;52.154;5.580;2023-11-19T07:14:18;13.48;;;2.53;;
24357;SDS011;13668;52.154;5.580;2023-11-19T07:16:45;23.13;;;3.78;;
24357;SDS011;13668;52.154;5.580;2023-11-19T07:19:15;20.67;;;3.45;;
24357;SDS011;13668;52.154;5.580;2023-11-19T07:21:41;21.45;;;3.95;;
24357;SDS011;13668;52.154;5.580;2023-11-19T07:24:12;22.98;;;3.35;;
24357;SDS011;13668;52.154;5.580;2023-11-19T07:26:41;15.73;;;3.58;;
24357;SDS011;13668;52.154;5.580;2023-11-19T07:29:07;21.38;;;3.20;;
24357;SDS011;13668;52.154;5.580;2023-11-19T07:31:33;19.00;;;3.83;;
24357;SDS011;13668;52.154;5.580;2023-11-19T07:33:59;25.75;;;5.30;;
24357;SDS011;13668;52.154;5.580;2023-11-19T07:36:25;15.02;;;3.20;;
24357;SDS011;13668;52.154;5.580;2023-11-19T07:38:53;20.60;;;3.53;;
24357;SDS011;13668;52.154;5.580;2023-11-19T07:41:22;20.55;;;3.08;;
24357;SDS011;13668;52.154;5.580;2023-11-19T07:43:50;23.15;;;5.25;;
24357;SDS011;13668;52.154;5.580;2023-11-19T07:46:16;11.70;;;2.95;;
24357;SDS011;13668;52.154;5.580;2023-11-19T07:48:44;19.20;;;3.80;;
24357;SDS011;13668;52.154;5.580;2023-11-19T07:51:12;16.23;;;3.70;;
24357;SDS011;13668;52.154;5.580;2023-11-19T07:53:38;18.83;;;2.72;;
24357;SDS011;13668;52.154;5.580;2023-11-19T07:56:04;16.42;;;3.13;;
24357;SDS011;13668;52.154;5.580;2023-11-19T07:58:30;13.90;;;2.50;;
24357;SDS011;13668;52.154;5.580;2023-11-19T08:00:56;11.55;;;2.28;;
24357;SDS011;13668;52.154;5.580;2023-11-19T08:03:22;22.98;;;3.85;;
24357;SDS011;13668;52.154;5.580;2023-11-19T08:05:48;18.05;;;3.95;;
24357;SDS011;13668;52.154;5.580;2023-11-19T08:08:17;13.90;;;2.92;;
24357;SDS011;13668;52.154;5.580;2023-11-19T08:10:59;24.10;;;3.90;;
24357;SDS011;13668;52.154;5.580;2023-11-19T08:13:25;15.90;;;3.40;;
24357;SDS011;13668;52.154;5.580;2023-11-19T08:15:51;19.13;;;3.22;;
24357;SDS011;13668;52.154;5.580;2023-11-19T08:18:17;19.00;;;3.25;;
24357;SDS011;13668;52.154;5.580;2023-11-19T08:20:43;19.27;;;4.50;;
24357;SDS011;13668;52.154;5.580;2023-11-19T08:23:10;29.65;;;3.83;;
24357;SDS011;13668;52.154;5.580;2023-11-19T08:25:36;18.98;;;3.42;;
24357;SDS011;13668;52.154;5.580;2023-11-19T08:28:02;26.02;;;3.92;;
24357;SDS011;13668;52.154;5.580;2023-11-19T08:30:28;16.30;;;3.25;;
24357;SDS011;13668;52.154;5.580;2023-11-19T08:32:55;22.58;;;3.45;;
24357;SDS011;13668;52.154;5.580;2023-11-19T08:35:21;19.92;;;4.03;;
24357;SDS011;13668;52.154;5.580;2023-11-19T08:37:48;11.95;;;3.55;;
24357;SDS011;13668;52.154;5.580;2023-11-19T08:40:14;18.83;;;4.93;;
24357;SDS011;13668;52.154;5.580;2023-11-19T08:42:40;16.60;;;3.95;;
24357;SDS011;13668;52.154;5.580;2023-11-19T08:45:07;20.75;;;2.83;;
24357;SDS011;13668;52.154;5.580;2023-11-19T08:47:35;27.15;;;4.47;;
24357;SDS011;13668;52.154;5.580;2023-11-19T08:50:01;16.13;;;3.08;;
24357;SDS011;13668;52.154;5.580;2023-11-19T08:52:28;21.75;;;3.63;;
24357;SDS011;13668;52.154;5.580;2023-11-19T08:54:54;14.23;;;3.03;;
24357;SDS011;13668;52.154;5.580;2023-11-19T08:57:21;18.05;;;3.33;;
24357;SDS011;13668;52.154;5.580;2023-11-19T08:59:47;10.98;;;3.00;;
24357;SDS011;13668;52.154;5.580;2023-11-19T09:02:12;17.25;;;4.22;;
24357;SDS011;13668;52.154;5.580;2023-11-19T09:04:38;19.77;;;3.67;;
24357;SDS011;13668;52.154;5.580;2023-11-19T09:07:05;15.43;;;3.67;;
24357;SDS011;13668;52.154;5.580;2023-11-19T09:09:34;14.82;;;3.17;;
24357;SDS011;13668;52.154;5.580;2023-11-19T09:12:00;14.93;;;3.20;;
24357;SDS011;13668;52.154;5.580;2023-11-19T09:14:26;17.08;;;3.42;;
24357;SDS011;13668;52.154;5.580;2023-11-19T09:16:52;16.98;;;2.72;;
24357;SDS011;13668;52.154;5.580;2023-11-19T09:19:21;15.80;;;3.38;;
24357;SDS011;13668;52.154;5.580;2023-11-19T09:21:47;11.68;;;2.88;;
24357;SDS011;13668;52.154;5.580;2023-11-19T09:24:14;11.23;;;2.90;;
24357;SDS011;13668;52.154;5.580;2023-11-19T09:26:40;15.57;;;3.88;;
24357;SDS011;13668;52.154;5.580;2023-11-19T09:29:09;9.30;;;3.13;;
24357;SDS011;13668;52.154;5.580;2023-11-19T09:31:35;23.52;;;3.03;;
24357;SDS011;13668;52.154;5.580;2023-11-19T09:34:06;18.50;;;3.55;;
24357;SDS011;13668;52.154;5.580;2023-11-19T09:36:32;13.43;;;3.70;;
24357;SDS011;13668;52.154;5.580;2023-11-19T09:38:58;20.52;;;3.38;;
24357;SDS011;13668;52.154;5.580;2023-11-19T09:41:29;19.65;;;3.65;;
24357;SDS011;13668;52.154;5.580;2023-11-19T09:43:56;17.90;;;3.80;;
24357;SDS011;13668;52.154;5.580;2023-11-19T09:46:22;16.63;;;3.08;;
24357;SDS011;13668;52.154;5.580;2023-11-19T09:48:49;12.75;;;2.75;;
24357;SDS011;13668;52.154;5.580;2023-11-19T09:51:21;21.88;;;3.88;;
24357;SDS011;13668;52.154;5.580;2023-11-19T09:53:47;13.25;;;2.28;;
24357;SDS011;13668;52.154;5.580;2023-11-19T09:56:14;18.75;;;3.15;;
24357;SDS011;13668;52.154;5.580;2023-11-19T09:58:41;16.65;;;3.38;;
24357;SDS011;13668;52.154;5.580;2023-11-19T10:01:08;17.30;;;3.33;;
24357;SDS011;13668;52.154;5.580;2023-11-19T10:03:37;13.38;;;2.90;;
24357;SDS011;13668;52.154;5.580;2023-11-19T10:06:06;13.00;;;3.13;;
24357;SDS011;13668;52.154;5.580;2023-11-19T10:08:32;18.42;;;3.17;;
24357;SDS011;13668;52.154;5.580;2023-11-19T10:10:58;15.88;;;3.00;;
24357;SDS011;13668;52.154;5.580;2023-11-19T10:13:28;19.98;;;3.05;;
24357;SDS011;13668;52.154;5.580;2023-11-19T10:15:55;20.02;;;3.70;;
24357;SDS011;13668;52.154;5.580;2023-11-19T10:18:25;18.77;;;4.00;;
24357;SDS011;13668;52.154;5.580;2023-11-19T10:20:51;23.27;;;3.53;;
24357;SDS011;13668;52.154;5.580;2023-11-19T10:23:18;20.80;;;3.25;;
24357;SDS011;13668;52.154;5.580;2023-11-19T10:25:44;16.38;;;3.42;;
24357;SDS011;13668;52.154;5.580;2023-11-19T10:28:10;15.30;;;2.72;;
24357;SDS011;13668;52.154;5.580;2023-11-19T10:30:36;14.18;;;2.83;;
24357;SDS011;13668;52.154;5.580;2023-11-19T10:35:28;27.23;;;4.50;;
24357;SDS011;13668;52.154;5.580;2023-11-19T10:37:54;18.05;;;3.83;;
24357;SDS011;13668;52.154;5.580;2023-11-19T10:40:20;16.70;;;2.58;;
24357;SDS011;13668;52.154;5.580;2023-11-19T10:42:46;12.00;;;2.95;;
24357;SDS011;13668;52.154;5.580;2023-11-19T10:48:07;17.40;;;2.90;;
24357;SDS011;13668;52.154;5.580;2023-11-19T10:50:34;9.15;;;3.28;;
24357;SDS011;13668;52.154;5.580;2023-11-19T10:53:01;10.30;;;2.92;;
24357;SDS011;13668;52.154;5.580;2023-11-19T10:55:28;17.52;;;2.90;;
24357;SDS011;13668;52.154;5.580;2023-11-19T10:57:59;16.48;;;2.65;;
24357;SDS011;13668;52.154;5.580;2023-11-19T11:00:26;16.42;;;3.38;;
24357;SDS011;13668;52.154;5.580;2023-11-19T11:02:56;20.77;;;3.30;;
24357;SDS011;13668;52.154;5.580;2023-11-19T11:05:26;13.75;;;3.38;;
24357;SDS011;13668;52.154;5.580;2023-11-19T11:07:52;12.15;;;2.22;;
24357;SDS011;13668;52.154;5.580;2023-11-19T11:10:21;14.18;;;2.97;;
24357;SDS011;13668;52.154;5.580;2023-11-19T11:12:51;15.57;;;2.15;;
24357;SDS011;13668;52.154;5.580;2023-11-19T11:15:21;11.75;;;2.47;;
24357;SDS011;13668;52.154;5.580;2023-11-19T11:17:47;16.88;;;3.42;;
24357;SDS011;13668;52.154;5.580;2023-11-19T11:20:14;16.10;;;2.97;;
24357;SDS011;13668;52.154;5.580;2023-11-19T11:22:54;14.35;;;3.22;;
24357;SDS011;13668;52.154;5.580;2023-11-19T11:25:38;17.17;;;3.13;;
24357;SDS011;13668;52.154;5.580;2023-11-19T11:28:26;12.32;;;4.03;;
24357;SDS011;13668;52.154;5.580;2023-11-19T11:31:15;20.80;;;3.70;;
24357;SDS011;13668;52.154;5.580;2023-11-19T11:36:25;17.00;;;2.92;;
24357;SDS011;13668;52.154;5.580;2023-11-19T11:38:52;13.32;;;2.55;;
24357;SDS011;13668;52.154;5.580;2023-11-19T11:41:22;16.77;;;3.67;;
24357;SDS011;13668;52.154;5.580;2023-11-19T11:43:50;13.73;;;3.08;;
24357;SDS011;13668;52.154;5.580;2023-11-19T11:49:02;10.18;;;2.58;;
24357;SDS011;13668;52.154;5.580;2023-11-19T11:54:14;11.38;;;3.33;;
24357;SDS011;13668;52.154;5.580;2023-11-19T12:02:08;16.50;;;3.08;;
24357;SDS011;13668;52.154;5.580;2023-11-19T12:04:34;18.73;;;3.22;;
24357;SDS011;13668;52.154;5.580;2023-11-19T12:07:04;9.00;;;2.42;;
24357;SDS011;13668;52.154;5.580;2023-11-19T12:09:30;8.32;;;1.90;;
24357;SDS011;13668;52.154;5.580;2023-11-19T12:12:07;14.73;;;3.15;;
24357;SDS011;13668;52.154;5.580;2023-11-19T12:17:37;12.25;;;2.28;;
24357;SDS011;13668;52.154;5.580;2023-11-19T12:20:05;9.48;;;2.92;;
24357;SDS011;13668;52.154;5.580;2023-11-19T12:22:34;9.30;;;2.28;;
24357;SDS011;13668;52.154;5.580;2023-11-19T12:25:00;14.05;;;2.20;;
24357;SDS011;13668;52.154;5.580;2023-11-19T12:27:27;11.13;;;2.47;;
24357;SDS011;13668;52.154;5.580;2023-11-19T12:29:53;6.78;;;2.00;;
24357;SDS011;13668;52.154;5.580;2023-11-19T12:32:21;12.43;;;3.30;;
24357;SDS011;13668;52.154;5.580;2023-11-19T12:34:47;10.32;;;2.13;;
24357;SDS011;13668;52.154;5.580;2023-11-19T12:37:13;9.25;;;2.40;;
24357;SDS011;13668;52.154;5.580;2023-11-19T12:39:43;11.23;;;1.98;;
24357;SDS011;13668;52.154;5.580;2023-11-19T12:42:09;10.52;;;2.30;;
24357;SDS011;13668;52.154;5.580;2023-11-19T12:44:38;10.50;;;3.00;;
24357;SDS011;13668;52.154;5.580;2023-11-19T12:47:05;18.23;;;2.92;;
24357;SDS011;13668;52.154;5.580;2023-11-19T12:49:40;7.60;;;1.80;;
24357;SDS011;13668;52.154;5.580;2023-11-19T12:52:13;9.98;;;1.63;;
24357;SDS011;13668;52.154;5.580;2023-11-19T12:54:38;10.43;;;2.30;;
24357;SDS011;13668;52.154;5.580;2023-11-19T12:57:07;11.98;;;3.40;;
24357;SDS011;13668;52.154;5.580;2023-11-19T12:59:33;14.25;;;2.25;;
24357;SDS011;13668;52.154;5.580;2023-11-19T13:01:59;16.42;;;2.13;;
24357;SDS011;13668;52.154;5.580;2023-11-19T13:04:27;8.00;;;1.83;;
24357;SDS011;13668;52.154;5.580;2023-11-19T13:06:55;13.30;;;3.33;;
24357;SDS011;13668;52.154;5.580;2023-11-19T13:09:28;9.25;;;2.45;;
24357;SDS011;13668;52.154;5.580;2023-11-19T13:11:55;20.20;;;3.00;;
24357;SDS011;13668;52.154;5.580;2023-11-19T13:14:21;17.40;;;3.40;;
24357;SDS011;13668;52.154;5.580;2023-11-19T13:16:48;10.10;;;2.13;;
24357;SDS011;13668;52.154;5.580;2023-11-19T13:19:14;11.07;;;2.15;;
24357;SDS011;13668;52.154;5.580;2023-11-19T13:21:44;12.75;;;2.00;;
24357;SDS011;13668;52.154;5.580;2023-11-19T13:24:13;15.38;;;2.38;;
24357;SDS011;13668;52.154;5.580;2023-11-19T13:26:39;7.97;;;2.25;;
24357;SDS011;13668;52.154;5.580;2023-11-19T13:29:05;6.10;;;2.05;;
24357;SDS011;13668;52.154;5.580;2023-11-19T13:31:31;22.45;;;3.25;;
24357;SDS011;13668;52.154;5.580;2023-11-19T13:33:57;11.55;;;3.50;;
24357;SDS011;13668;52.154;5.580;2023-11-19T13:36:23;15.25;;;2.80;;
24357;SDS011;13668;52.154;5.580;2023-11-19T13:38:51;15.23;;;2.38;;
24357;SDS011;13668;52.154;5.580;2023-11-19T13:41:23;14.93;;;2.90;;
24357;SDS011;13668;52.154;5.580;2023-11-19T13:43:50;12.20;;;2.17;;
24357;SDS011;13668;52.154;5.580;2023-11-19T13:46:16;11.30;;;2.45;;
24357;SDS011;13668;52.154;5.580;2023-11-19T13:48:45;10.25;;;2.50;;
24357;SDS011;13668;52.154;5.580;2023-11-19T13:51:11;10.35;;;1.88;;
24357;SDS011;13668;52.154;5.580;2023-11-19T13:53:43;14.20;;;2.40;;
24357;SDS011;13668;52.154;5.580;2023-11-19T13:56:09;15.10;;;2.67;;
24357;SDS011;13668;52.154;5.580;2023-11-19T13:58:35;6.22;;;2.33;;
24357;SDS011;13668;52.154;5.580;2023-11-19T14:01:01;10.93;;;1.73;;
24357;SDS011;13668;52.154;5.580;2023-11-19T14:03:31;14.77;;;2.90;;
24357;SDS011;13668;52.154;5.580;2023-11-19T14:05:58;9.20;;;3.05;;
24357;SDS011;13668;52.154;5.580;2023-11-19T14:08:24;13.20;;;2.63;;
24357;SDS011;13668;52.154;5.580;2023-11-19T14:10:50;14.63;;;2.33;;
24357;SDS011;13668;52.154;5.580;2023-11-19T14:13:16;16.55;;;2.97;;
24357;SDS011;13668;52.154;5.580;2023-11-19T14:15:42;10.82;;;2.63;;
24357;SDS011;13668;52.154;5.580;2023-11-19T14:18:11;13.43;;;2.35;;
24357;SDS011;13668;52.154;5.580;2023-11-19T14:20:37;11.13;;;1.80;;
24357;SDS011;13668;52.154;5.580;2023-11-19T14:23:04;8.05;;;1.73;;
24357;SDS011;13668;52.154;5.580;2023-11-19T14:25:35;19.30;;;2.58;;
24357;SDS011;13668;52.154;5.580;2023-11-19T14:28:01;8.77;;;2.55;;
24357;SDS011;13668;52.154;5.580;2023-11-19T14:30:27;6.97;;;3.08;;
24357;SDS011;13668;52.154;5.580;2023-11-19T14:32:53;8.82;;;2.28;;
24357;SDS011;13668;52.154;5.580;2023-11-19T14:35:19;10.63;;;2.65;;
24357;SDS011;13668;52.154;5.580;2023-11-19T14:37:45;10.85;;;2.30;;
24357;SDS011;13668;52.154;5.580;2023-11-19T14:40:11;8.50;;;1.70;;
24357;SDS011;13668;52.154;5.580;2023-11-19T14:42:37;14.10;;;2.13;;
24357;SDS011;13668;52.154;5.580;2023-11-19T14:45:06;8.55;;;1.88;;
24357;SDS011;13668;52.154;5.580;2023-11-19T14:47:32;15.50;;;2.45;;
24357;SDS011;13668;52.154;5.580;2023-11-19T14:49:58;10.50;;;2.00;;
24357;SDS011;13668;52.154;5.580;2023-11-19T14:52:24;9.75;;;1.80;;
24357;SDS011;13668;52.154;5.580;2023-11-19T14:54:50;8.05;;;2.08;;
24357;SDS011;13668;52.154;5.580;2023-11-19T14:57:21;16.50;;;2.60;;